Aeroporto :
LOGIN :

Iscrizione | Disclaimer

   EN    FR    IT 

 










Sommario :    VFR   VFR Marginale   IFR   IFR Intensivo   IFR Molto Intensivo
Visibilità : 
Base nubi : 
>= 8 km
>= 3000ft
5 / 8 km
1000 / 3000 ft
1500m / 5 km
500 / 1000 ft
800 / 1500m
200 / 500 ft
< 800m
< 200 ft
Simboli :   Temporali  Nebbia  Neve Forte  Precipitazioni Forti  Vento > 20 kt
SIGMETs :   Varie  Temporali  Ghiacco  Turbolenza  Onda orograficha  Ceneri Vulcaniche






- Altitudine del aeroporto : 0 ft


ENQC - Troll C Platform

ULTIMO METAR :
  • 051650Z AUTO 22026KT 9999NDV -RA FEW017/// BKN033/// 11/06 Q0986 W///S6

METARs OBSOLETI :
  • 051620Z AUTO 22029KT 7000NDV -RA OVC036/// 07/04 Q0986 W///S6
  • 051550Z AUTO 22030KT 9999NDV -RA OVC035/// 07/04 Q0986 W///S6
  • 051520Z AUTO 22027KT 8000NDV -RA OVC039/// 07/04 Q0987 W///S6
  • 051450Z AUTO 22027KT 9999NDV -RA BKN028/// 07/04 Q0987 W///S6
  • 051420Z AUTO 23027KT 9999NDV -SHRA BKN026/// BKN064/// 07/04 Q0988 W///S6

TAF N/A



MetMap, La meteo Aeronautica in un colpo d'occhio ! - Copyright ORBIFLY Dicembre 2007 - Disclaimer

ORBIFLY MET'MAP TEAM :

Programmazione e sviluppo : Alexandra Zaïnal
Concezione : Baudouin d'Aumeries
Aiuto per la programmazione : Marc-Olivier Méhu
Supporto tecnico e logistico : Manuel Goepfert
Aiuto per la traduzione : Arnaldo La Scala

Contatto : metmap@orbifly.com




FONTI E CREDITI :

   NOAA